Time;durP1;ratioP1;P1;durP2;ratioP2;P2;SDS_P1;SDS_P2;PMS_P1;PMS_P2;Temp;Humidity;BMP_temperature;BMP_pressure;BME280_temperature;BME280_humidity;BME280_pressure;Samples;Min_cycle;Max_cycle;Signal;HPM_P1;HPM_P2
2023/09/14 00:01:36;;;;;;;6.50;4.53;;;;;;;20.07;46.50;95157.06;4917782;29;20237;-92
2023/09/14 00:04:02;;;;;;;7.68;4.90;;;;;;;20.03;46.59;95148.94;4950988;29;20028;-94
2023/09/14 00:06:27;;;;;;;7.20;4.13;;;;;;;20.03;46.62;95150.97;4933119;29;20027;-94
2023/09/14 00:08:53;;;;;;;6.82;4.60;;;;;;;20.00;47.01;95149.16;4933632;29;20031;-94
2023/09/14 00:11:19;;;;;;;10.48;5.05;;;;;;;19.93;46.79;95142.00;4949596;29;20031;-93
2023/09/14 00:13:46;;;;;;;8.30;4.68;;;;;;;19.96;47.00;95154.22;4934227;28;20031;-94
2023/09/14 00:16:11;;;;;;;8.15;4.63;;;;;;;19.87;47.52;95150.31;4917091;29;20089;-93
2023/09/14 00:18:36;;;;;;;9.65;5.00;;;;;;;19.83;47.20;95146.97;4933650;29;20035;-91
2023/09/14 00:21:02;;;;;;;6.55;4.53;;;;;;;19.87;47.27;95149.56;4932953;29;20082;-93
2023/09/14 00:23:28;;;;;;;6.80;4.90;;;;;;;19.80;47.41;95150.75;4917120;29;20023;-93
2023/09/14 00:25:53;;;;;;;9.18;5.03;;;;;;;19.78;47.71;95153.25;4934267;29;20458;-93
2023/09/14 00:28:19;;;;;;;10.55;5.15;;;;;;;19.79;47.61;95165.22;4933639;29;20058;-92
2023/09/14 00:30:44;;;;;;;8.40;4.47;;;;;;;19.73;47.74;95159.56;4935764;29;20039;-90
2023/09/14 00:33:09;;;;;;;8.50;4.53;;;;;;;19.67;47.62;95149.59;4951197;28;20027;-92
2023/09/14 00:35:35;;;;;;;7.28;4.47;;;;;;;19.69;47.66;95159.00;4935972;29;20032;-92
2023/09/14 00:38:00;;;;;;;9.68;4.90;;;;;;;19.64;47.73;95156.94;4932561;29;20086;-92
2023/09/14 00:40:26;;;;;;;9.65;4.78;;;;;;;19.62;48.04;95151.09;4918074;29;20039;-92
2023/09/14 00:42:52;;;;;;;8.27;4.85;;;;;;;19.59;48.31;95157.63;4917395;29;20090;-93
2023/09/14 00:45:19;;;;;;;7.03;4.85;;;;;;;19.62;47.79;95162.25;4917232;29;20027;-93
2023/09/14 00:47:46;;;;;;;7.13;4.68;;;;;;;19.52;48.19;95149.69;4934069;29;20110;-92
2023/09/14 00:50:17;;;;;;;7.07;4.72;;;;;;;19.52;48.27;95156.03;4949282;29;20039;-92
2023/09/14 00:52:44;;;;;;;6.65;4.88;;;;;;;19.49;48.34;95145.84;4918465;29;20112;-92
2023/09/14 00:55:10;;;;;;;10.93;4.68;;;;;;;19.45;48.44;95148.09;4916371;29;20045;-93
2023/09/14 00:57:36;;;;;;;8.15;4.93;;;;;;;19.47;48.46;95147.59;4917117;29;20035;-93
2023/09/14 01:00:10;;;;;;;9.80;4.68;;;;;;;19.43;48.56;95153.38;4916589;29;20039;-93
2023/09/14 01:02:36;;;;;;;7.45;4.45;;;;;;;19.38;48.85;95148.50;4917114;29;20490;-93
2023/09/14 01:05:04;;;;;;;9.55;4.50;;;;;;;19.35;49.05;95153.03;4933160;29;20050;-93
2023/09/14 01:07:30;;;;;;;7.05;4.32;;;;;;;19.36;48.76;95145.44;4932297;29;20027;-93
2023/09/14 01:09:56;;;;;;;6.65;4.80;;;;;;;19.25;48.84;95132.16;4933689;29;20404;-93
2023/09/14 01:12:21;;;;;;;6.88;4.80;;;;;;;19.28;48.96;95136.75;4934972;29;20062;-92
2023/09/14 01:15:08;;;;;;;7.70;4.80;;;;;;;19.25;49.10;95136.94;4933321;29;20489;-93
2023/09/14 01:17:35;;;;;;;7.32;4.93;;;;;;;19.23;49.09;95139.47;4932639;29;20039;-93
2023/09/14 01:20:22;;;;;;;6.43;4.28;;;;;;;19.18;49.02;95140.16;4932038;29;20429;-93
2023/09/14 01:23:12;;;;;;;7.38;4.38;;;;;;;19.19;48.99;95147.28;4933308;29;20506;-92
2023/09/14 01:25:41;;;;;;;8.65;4.57;;;;;;;19.13;49.05;95136.06;4931996;29;20530;-93
2023/09/14 01:28:11;;;;;;;8.55;4.90;;;;;;;19.10;48.85;95143.38;4916305;29;20020;-92
2023/09/14 01:30:40;;;;;;;8.13;4.88;;;;;;;19.13;49.09;95154.78;4932548;29;20122;-92
2023/09/14 01:33:07;;;;;;;7.28;4.40;;;;;;;19.13;49.19;95152.78;4916001;29;20034;-91
2023/09/14 01:35:37;;;;;;;10.57;4.63;;;;;;;19.08;48.97;95145.88;4933646;29;20050;-93
2023/09/14 01:38:03;;;;;;;7.85;4.80;;;;;;;19.09;49.19;95150.19;4916726;29;20036;-93
2023/09/14 01:40:29;;;;;;;8.40;4.90;;;;;;;19.11;49.21;95144.16;4933405;29;20027;-94
2023/09/14 01:42:55;;;;;;;10.13;4.80;;;;;;;19.03;49.25;95145.81;4948534;29;20083;-93
2023/09/14 01:45:20;;;;;;;10.23;4.70;;;;;;;19.05;49.59;95160.03;4933024;29;20027;-92
2023/09/14 01:47:46;;;;;;;8.55;4.95;;;;;;;19.01;49.29;95139.97;4921172;29;20093;-93
2023/09/14 01:50:12;;;;;;;9.32;5.28;;;;;;;18.97;49.54;95148.50;4952486;29;20051;-93
2023/09/14 01:52:38;;;;;;;8.20;4.63;;;;;;;18.98;49.77;95155.66;4936743;29;20032;-94
2023/09/14 01:55:04;;;;;;;7.57;4.82;;;;;;;19.00;49.59;95152.38;4934867;29;20019;-93
2023/09/14 01:57:29;;;;;;;9.73;4.85;;;;;;;18.97;49.74;95150.53;4920775;29;20027;-91
2023/09/14 01:59:54;;;;;;;7.25;4.55;;;;;;;19.01;49.90;95160.22;4919443;29;20470;-94
2023/09/14 02:02:23;;;;;;;8.60;4.90;;;;;;;18.94;49.82;95148.75;4936244;29;20027;-92
2023/09/14 02:04:48;;;;;;;8.15;4.72;;;;;;;18.92;49.90;95145.66;4936240;29;20498;-93
2023/09/14 02:07:14;;;;;;;7.30;4.55;;;;;;;18.96;49.71;95160.91;4935054;29;20042;-92
2023/09/14 02:09:39;;;;;;;13.13;5.55;;;;;;;18.90;50.23;95148.19;4953404;29;20118;-93
2023/09/14 02:12:05;;;;;;;9.05;4.50;;;;;;;18.88;50.00;95150.69;4935368;29;20019;-95
2023/09/14 02:14:30;;;;;;;8.77;4.70;;;;;;;18.86;50.17;95142.03;4920325;29;20032;-94
2023/09/14 02:16:55;;;;;;;10.50;5.35;;;;;;;18.82;49.93;95150.63;4919104;29;20513;-93
2023/09/14 02:19:21;;;;;;;10.20;4.93;;;;;;;18.83;50.02;95152.91;4936491;29;20094;-93
2023/09/14 02:21:46;;;;;;;6.68;5.00;;;;;;;18.78;49.92;95144.47;4935796;29;20143;-92
2023/09/14 02:24:12;;;;;;;10.25;5.20;;;;;;;18.82;50.18;95156.94;4936369;29;20057;-92
2023/09/14 02:26:37;;;;;;;10.52;6.90;;;;;;;18.80;50.08;95162.22;4936160;29;20114;-93
2023/09/14 02:29:03;;;;;;;9.05;5.00;;;;;;;18.77;50.51;95159.66;4951852;29;20053;-92
2023/09/14 02:31:28;;;;;;;8.13;5.43;;;;;;;18.69;50.49;95150.16;4952854;29;20041;-92
2023/09/14 02:33:54;;;;;;;6.70;4.85;;;;;;;18.76;50.23;95156.09;4934895;29;20034;-91
2023/09/14 02:36:19;;;;;;;10.23;5.88;;;;;;;18.70;50.27;95155.25;4937613;29;20051;-91
2023/09/14 02:38:45;;;;;;;8.38;4.95;;;;;;;18.68;49.91;95154.97;4936996;29;20027;-90
2023/09/14 02:41:11;;;;;;;7.53;4.10;;;;;;;18.60;49.91;95137.13;4937994;29;20082;-91
2023/09/14 02:43:36;;;;;;;6.53;4.40;;;;;;;18.60;49.71;95148.25;4934600;29;20031;-90
2023/09/14 02:46:02;;;;;;;7.55;4.60;;;;;;;18.56;49.82;95137.31;4934751;29;20032;-91
2023/09/14 02:48:27;;;;;;;10.23;5.43;;;;;;;18.57;49.92;95136.06;4934984;29;20031;-92
2023/09/14 02:50:52;;;;;;;8.88;4.78;;;;;;;18.56;50.02;95130.97;4933970;29;20041;-91
2023/09/14 02:53:18;;;;;;;6.97;4.80;;;;;;;18.65;50.11;95138.44;4919676;29;20027;-93
2023/09/14 02:55:43;;;;;;;9.35;4.80;;;;;;;18.57;50.31;95129.72;4933503;29;20035;-90
2023/09/14 02:58:09;;;;;;;10.45;4.85;;;;;;;18.52;50.57;95130.41;4934895;29;20089;-90
2023/09/14 03:00:37;;;;;;;8.73;5.13;;;;;;;18.51;50.59;95138.00;4917739;29;20027;-92
2023/09/14 03:03:02;;;;;;;9.20;5.00;;;;;;;18.50;50.87;95135.69;4919277;29;20053;-92
2023/09/14 03:05:28;;;;;;;8.85;5.07;;;;;;;18.53;50.68;95143.84;4936708;29;20467;-93
2023/09/14 03:07:53;;;;;;;8.13;5.25;;;;;;;18.49;50.73;95137.72;4936129;29;20035;-93
2023/09/14 03:10:19;;;;;;;7.88;5.20;;;;;;;18.48;50.93;95141.75;4938011;29;20039;-92
2023/09/14 03:12:44;;;;;;;9.90;5.15;;;;;;;18.50;50.81;95146.84;4935447;29;20130;-92
2023/09/14 03:15:10;;;;;;;8.02;4.90;;;;;;;18.51;51.09;95146.34;4936196;29;20034;-92
2023/09/14 03:17:35;;;;;;;10.23;5.60;;;;;;;18.48;51.13;95141.75;4933276;29;20062;-93
2023/09/14 03:20:00;;;;;;;9.00;4.90;;;;;;;18.45;50.78;95139.16;4934838;29;20027;-92
2023/09/14 03:22:26;;;;;;;8.98;5.38;;;;;;;18.46;50.90;95144.25;4933864;29;20042;-91
2023/09/14 03:24:51;;;;;;;9.63;5.70;;;;;;;18.47;51.20;95148.59;4934300;29;20023;-91
2023/09/14 03:27:17;;;;;;;10.18;4.97;;;;;;;18.43;51.28;95150.78;4934333;29;20570;-92
2023/09/14 03:29:42;;;;;;;12.45;5.30;;;;;;;18.44;51.27;95143.19;4933358;29;20016;-94
2023/09/14 03:32:08;;;;;;;11.45;5.45;;;;;;;18.46;51.30;95143.47;4934548;29;20036;-93
2023/09/14 03:34:33;;;;;;;11.05;5.90;;;;;;;18.47;51.24;95148.59;4933034;29;20062;-94
2023/09/14 03:36:59;;;;;;;14.60;5.55;;;;;;;18.46;51.43;95144.25;4934593;29;20126;-93
2023/09/14 03:39:24;;;;;;;12.25;5.30;;;;;;;18.43;51.53;95145.22;4932946;29;20114;-93
2023/09/14 03:41:49;;;;;;;8.85;5.35;;;;;;;18.41;51.60;95150.50;4951325;29;20020;-92
2023/09/14 03:44:16;;;;;;;10.68;5.95;;;;;;;18.45;51.49;95158.66;4951203;29;20046;-94
2023/09/14 03:46:41;;;;;;;14.38;5.90;;;;;;;18.44;51.60;95155.09;4917941;29;20065;-92
2023/09/14 03:49:07;;;;;;;14.63;5.93;;;;;;;18.39;51.55;95153.00;4918356;29;20063;-92
2023/09/14 03:51:33;;;;;;;10.77;5.80;;;;;;;18.41;51.87;95147.72;4933110;29;20031;-94
2023/09/14 03:53:58;;;;;;;9.88;5.63;;;;;;;18.38;51.97;95157.03;4918603;29;20023;-93
2023/09/14 03:56:24;;;;;;;12.77;6.10;;;;;;;18.36;51.92;95153.97;4917094;29;20130;-92
2023/09/14 03:58:49;;;;;;;12.55;6.25;;;;;;;18.33;51.86;95159.72;4935170;29;20046;-92
2023/09/14 04:01:15;;;;;;;14.13;6.70;;;;;;;18.28;52.06;95161.94;4933369;29;20062;-93
2023/09/14 04:03:40;;;;;;;13.50;6.30;;;;;;;18.30;51.98;95165.03;4933748;29;20557;-93
2023/09/14 04:06:06;;;;;;;9.82;6.15;;;;;;;18.27;52.31;95168.75;4933912;29;20038;-93
2023/09/14 04:08:31;;;;;;;11.02;5.68;;;;;;;18.29;52.29;95174.63;4916073;29;20047;-93
2023/09/14 04:11:00;;;;;;;11.13;5.60;;;;;;;18.25;52.24;95170.50;4917724;29;20222;-93
2023/09/14 04:13:31;;;;;;;10.82;5.78;;;;;;;18.18;52.25;95163.31;4932496;29;20508;-92
2023/09/14 04:15:57;;;;;;;12.40;5.88;;;;;;;18.19;52.42;95167.63;4950098;29;20027;-92
2023/09/14 04:18:23;;;;;;;9.10;5.70;;;;;;;18.15;52.67;95174.63;4949808;29;20494;-80
2023/09/14 04:20:49;;;;;;;13.02;5.47;;;;;;;18.13;52.49;95169.56;4932730;29;20090;-88
2023/09/14 04:23:15;;;;;;;11.82;5.55;;;;;;;18.13;52.89;95177.91;4932561;29;20063;-88
2023/09/14 04:25:47;;;;;;;12.20;6.15;;;;;;;18.13;52.75;95172.34;4932211;29;20058;-89
2023/09/14 04:28:17;;;;;;;13.30;6.45;;;;;;;18.14;52.89;95182.22;4917981;29;20027;-87
2023/09/14 04:30:44;;;;;;;14.05;7.18;;;;;;;18.18;52.75;95179.22;4932070;29;20037;-91
2023/09/14 04:33:13;;;;;;;17.10;7.35;;;;;;;18.16;52.78;95179.69;4917599;29;20467;-87
2023/09/14 04:35:39;;;;;;;9.82;7.18;;;;;;;18.16;52.97;95182.47;4948901;29;20406;-90
2023/09/14 04:38:08;;;;;;;12.38;7.80;;;;;;;18.16;52.97;95179.69;4916929;29;20031;-87
2023/09/14 04:40:38;;;;;;;14.48;7.07;;;;;;;18.14;52.99;95182.22;4916973;29;20031;-92
2023/09/14 04:43:04;;;;;;;10.95;6.15;;;;;;;18.18;53.03;95179.22;4921150;29;20091;-92
2023/09/14 04:45:29;;;;;;;12.15;6.38;;;;;;;18.20;53.17;95179.50;4932505;29;20429;-90
2023/09/14 04:47:55;;;;;;;17.05;6.78;;;;;;;18.27;53.07;95181.91;4931631;29;20058;-89
2023/09/14 04:50:21;;;;;;;12.50;6.72;;;;;;;18.24;53.04;95180.88;4917193;29;20049;-88
2023/09/14 04:52:46;;;;;;;20.73;7.43;;;;;;;18.25;53.25;95185.16;4931263;29;20118;-93
2023/09/14 04:55:12;;;;;;;18.83;7.70;;;;;;;18.27;52.95;95187.47;4933502;29;20027;-91
2023/09/14 04:57:37;;;;;;;16.88;7.78;;;;;;;18.31;52.88;95185.25;4916677;29;20100;-90
2023/09/14 05:00:04;;;;;;;15.75;7.53;;;;;;;18.40;52.84;95189.94;4932225;29;20114;-90
2023/09/14 05:02:30;;;;;;;15.07;7.95;;;;;;;18.40;52.69;95189.94;4932894;29;20028;-91
2023/09/14 05:04:55;;;;;;;11.40;7.13;;;;;;;18.42;52.88;95177.09;4931792;29;20027;-91
2023/09/14 05:07:21;;;;;;;17.20;7.93;;;;;;;18.47;52.65;95181.97;4932834;29;20067;-90
2023/09/14 05:09:46;;;;;;;18.02;7.80;;;;;;;18.47;52.50;95175.66;4930987;29;20027;-90
2023/09/14 05:12:12;;;;;;;14.15;7.13;;;;;;;18.56;52.60;95201.34;4932944;29;20348;-90
2023/09/14 05:14:37;;;;;;;13.90;7.65;;;;;;;18.63;52.32;95194.59;4931497;28;20026;-90
2023/09/14 05:17:03;;;;;;;16.13;7.68;;;;;;;18.69;52.07;95197.50;4932972;29;20055;-90
2023/09/14 05:19:29;;;;;;;10.80;6.53;;;;;;;18.76;52.08;95202.69;4948851;29;20495;-90
2023/09/14 05:21:55;;;;;;;14.93;7.35;;;;;;;18.78;51.79;95194.59;4916681;29;20035;-91
2023/09/14 05:24:20;;;;;;;14.27;7.38;;;;;;;18.84;51.65;95199.00;4932885;29;20586;-91
2023/09/14 05:26:47;;;;;;;17.55;7.68;;;;;;;18.93;51.78;95200.91;4948337;29;20023;-89
2023/09/14 05:29:13;;;;;;;13.50;8.27;;;;;;;18.97;51.34;95195.09;4933213;29;20030;-90
2023/09/14 05:31:38;;;;;;;15.45;7.70;;;;;;;19.02;51.60;95195.19;4931418;29;20487;-90
2023/09/14 05:34:06;;;;;;;16.70;7.18;;;;;;;19.09;51.29;95199.56;4917552;29;20062;-91
2023/09/14 05:36:31;;;;;;;16.42;7.57;;;;;;;19.12;51.14;95195.81;4936059;29;20051;-90
2023/09/14 05:38:56;;;;;;;12.98;7.25;;;;;;;19.22;51.16;95197.22;4954363;29;20058;-90
2023/09/14 05:41:22;;;;;;;14.88;8.05;;;;;;;19.26;50.76;95188.66;4932704;29;20114;-90
2023/09/14 05:43:47;;;;;;;14.73;7.55;;;;;;;19.32;50.60;95193.03;4932361;29;20032;-91
2023/09/14 05:46:13;;;;;;;11.32;7.38;;;;;;;19.42;50.19;95199.22;4933456;29;20032;-93
2023/09/14 05:48:38;;;;;;;13.27;7.10;;;;;;;19.44;50.15;95202.31;4931674;29;20423;-86
2023/09/14 05:51:03;;;;;;;15.85;7.95;;;;;;;19.49;50.82;95201.59;4950619;29;20490;-91
2023/09/14 05:53:29;;;;;;;21.00;8.88;;;;;;;19.54;50.46;95205.72;4915771;29;20070;-92
2023/09/14 05:55:55;;;;;;;16.50;8.25;;;;;;;19.63;50.22;95202.81;4932676;29;20481;-92
2023/09/14 05:58:20;;;;;;;18.60;9.50;;;;;;;19.71;49.75;95198.31;4915961;29;20016;-92
2023/09/14 06:00:46;;;;;;;21.92;8.80;;;;;;;19.69;49.73;95192.47;4931596;29;20027;-91
2023/09/14 06:03:13;;;;;;;16.95;7.93;;;;;;;19.79;49.09;95187.53;4931522;29;20089;-86
2023/09/14 06:05:38;;;;;;;10.23;6.60;;;;;;;19.81;48.91;95196.91;4930012;29;20027;-89
2023/09/14 06:08:04;;;;;;;12.90;6.82;;;;;;;19.85;48.81;95188.34;4930512;29;20034;-87
2023/09/14 06:10:30;;;;;;;10.80;6.93;;;;;;;19.94;48.28;95198.56;4929597;29;20090;-87
2023/09/14 06:12:55;;;;;;;16.67;7.75;;;;;;;20.01;48.28;95192.53;4931640;29;20035;-87
2023/09/14 06:15:21;;;;;;;10.15;6.88;;;;;;;20.08;48.06;95195.66;4914828;29;20049;-87
2023/09/14 06:17:47;;;;;;;14.70;7.28;;;;;;;20.12;47.92;95190.63;4931360;29;20642;-87
2023/09/14 06:20:12;;;;;;;12.73;6.88;;;;;;;20.22;47.71;95185.63;4914998;29;20035;-86
2023/09/14 06:22:39;;;;;;;11.82;6.65;;;;;;;20.30;47.66;95191.53;4930889;29;20019;-87
2023/09/14 06:25:05;;;;;;;13.45;7.03;;;;;;;20.37;47.29;95193.88;4915450;29;20090;-87
2023/09/14 06:27:30;;;;;;;11.45;6.90;;;;;;;20.49;46.72;95205.94;4929764;29;20399;-87
2023/09/14 06:29:56;;;;;;;17.10;7.05;;;;;;;20.53;46.73;95198.09;4931601;29;20034;-87
2023/09/14 06:32:21;;;;;;;13.82;6.70;;;;;;;20.60;46.57;95208.81;4930228;29;20419;-86
2023/09/14 06:34:47;;;;;;;13.38;6.43;;;;;;;20.61;46.54;95210.34;4934999;29;20035;-87
2023/09/14 06:37:12;;;;;;;13.55;6.47;;;;;;;20.66;46.11;95218.78;4929864;29;20126;-85
2023/09/14 06:39:38;;;;;;;16.17;6.28;;;;;;;20.73;46.40;95223.13;4932340;29;20086;-83
2023/09/14 06:42:04;;;;;;;10.48;5.43;;;;;;;20.76;45.88;95215.78;4931277;29;20373;-87
2023/09/14 06:44:30;;;;;;;10.32;6.20;;;;;;;20.82;45.70;95216.59;4930194;29;20462;-87
2023/09/14 06:46:55;;;;;;;14.15;5.80;;;;;;;20.87;45.33;95215.84;4931094;29;20047;-86
2023/09/14 06:49:20;;;;;;;11.48;5.57;;;;;;;20.93;45.15;95217.44;4929874;29;20031;-87
2023/09/14 06:51:47;;;;;;;9.32;5.38;;;;;;;21.04;45.29;95229.94;4915518;29;20047;-86
2023/09/14 06:54:12;;;;;;;14.10;5.45;;;;;;;21.14;44.97;95229.22;4930674;29;20031;-86
2023/09/14 06:56:37;;;;;;;11.27;5.20;;;;;;;21.12;45.26;95217.03;4916328;29;20045;-87
2023/09/14 06:59:03;;;;;;;10.48;5.65;;;;;;;21.27;44.91;95223.19;4914408;29;20027;-86
2023/09/14 07:01:29;;;;;;;15.77;5.70;;;;;;;21.41;44.30;95229.91;4930103;29;20385;-85
2023/09/14 07:03:54;;;;;;;12.82;5.18;;;;;;;21.48;43.81;95229.44;4930943;29;20028;-85
2023/09/14 07:06:20;;;;;;;16.08;6.10;;;;;;;21.52;43.92;95237.59;4913657;29;20585;-86
2023/09/14 07:08:45;;;;;;;15.65;5.68;;;;;;;21.59;43.93;95231.50;4915420;29;20024;-86
2023/09/14 07:11:12;;;;;;;12.65;5.68;;;;;;;21.66;43.90;95219.84;4929471;29;20110;-87
2023/09/14 07:13:37;;;;;;;11.95;5.15;;;;;;;21.76;43.36;95229.53;4916316;29;20062;-89
2023/09/14 07:16:05;;;;;;;9.35;5.30;;;;;;;21.85;42.81;95229.34;4931086;29;20102;-90
2023/09/14 07:18:32;;;;;;;11.95;4.55;;;;;;;21.94;42.47;95217.88;4931146;29;20019;-90
2023/09/14 07:20:59;;;;;;;12.55;4.65;;;;;;;22.08;41.91;95224.56;4931218;29;20138;-91
2023/09/14 07:23:28;;;;;;;13.88;4.07;;;;;;;22.14;41.51;95227.41;4930518;29;20082;-90
2023/09/14 07:25:53;;;;;;;13.77;5.00;;;;;;;22.23;41.83;95233.50;4915537;29;20051;-88
2023/09/14 07:28:20;;;;;;;14.40;4.35;;;;;;;22.27;42.10;95228.41;4929692;29;20491;-90
2023/09/14 07:30:48;;;;;;;11.88;4.45;;;;;;;22.38;41.29;95238.13;4933024;29;20130;-90
2023/09/14 07:33:14;;;;;;;12.57;4.55;;;;;;;22.33;41.41;95230.47;4929516;29;20487;-90
2023/09/14 07:35:39;;;;;;;11.35;3.90;;;;;;;22.45;40.83;95232.75;4931166;29;20028;-89
2023/09/14 07:38:07;;;;;;;14.10;4.43;;;;;;;22.59;40.50;95244.22;4917671;29;20114;-89
2023/09/14 07:40:32;;;;;;;9.65;3.83;;;;;;;22.61;40.20;95250.09;4917066;29;20031;-90
2023/09/14 07:42:58;;;;;;;10.07;3.53;;;;;;;22.75;39.58;95237.84;4934269;29;20093;-89
2023/09/14 07:45:23;;;;;;;12.38;3.45;;;;;;;22.78;39.59;95234.81;4932540;29;20061;-84
2023/09/14 07:47:49;;;;;;;17.75;4.88;;;;;;;22.89;39.72;95239.66;4919190;29;20414;-87
2023/09/14 07:50:14;;;;;;;15.68;4.97;;;;;;;22.96;38.96;95233.53;4915284;29;20035;-88
2023/09/14 07:52:41;;;;;;;13.45;3.97;;;;;;;22.97;38.95;95223.84;4933600;29;20031;-86
2023/09/14 07:55:07;;;;;;;15.38;4.05;;;;;;;23.14;38.79;95237.09;4931762;29;20020;-87
2023/09/14 07:57:33;;;;;;;13.38;4.00;;;;;;;23.29;38.06;95238.34;4916460;29;20042;-88
2023/09/14 07:59:58;;;;;;;11.27;4.22;;;;;;;23.30;37.83;95231.44;4933274;29;20457;-87
2023/09/14 08:02:25;;;;;;;11.50;3.80;;;;;;;23.44;37.88;95217.63;4934567;29;20027;-88
2023/09/14 08:04:51;;;;;;;16.42;4.68;;;;;;;23.59;38.15;95224.44;4919547;29;20344;-87
2023/09/14 08:07:16;;;;;;;11.75;4.45;;;;;;;23.78;37.67;95221.09;4948541;29;20032;-87
2023/09/14 08:09:44;;;;;;;15.85;4.13;;;;;;;23.98;37.18;95219.97;4932839;29;20058;-88
2023/09/14 08:12:09;;;;;;;10.40;3.95;;;;;;;24.14;37.03;95215.53;4915232;29;20035;-89
2023/09/14 08:14:35;;;;;;;10.52;3.55;;;;;;;24.34;36.39;95218.75;4934002;28;20067;-91
2023/09/14 08:17:02;;;;;;;13.82;4.00;;;;;;;24.52;36.28;95219.38;4937063;29;20384;-93
2023/09/14 08:19:28;;;;;;;10.63;3.30;;;;;;;24.70;36.18;95215.16;4937033;29;20031;-91
2023/09/14 08:21:53;;;;;;;12.25;4.45;;;;;;;24.96;35.39;95212.63;4937795;29;20475;-83
2023/09/14 08:24:19;;;;;;;14.13;4.45;;;;;;;25.19;35.06;95221.63;4916504;29;20067;-91
2023/09/14 08:26:44;;;;;;;10.52;3.65;;;;;;;25.37;34.79;95217.34;4918843;29;20038;-91
2023/09/14 08:29:10;;;;;;;9.32;4.22;;;;;;;25.54;34.68;95217.91;4935612;29;20027;-93
2023/09/14 08:31:37;;;;;;;14.98;4.20;;;;;;;25.79;34.56;95220.72;4935778;29;20091;-96
2023/09/14 08:34:02;;;;;;;10.35;4.00;;;;;;;26.01;34.33;95208.41;4951771;29;20039;-94
2023/09/14 08:36:28;;;;;;;9.13;4.20;;;;;;;26.22;33.58;95212.19;4946217;29;20062;-95
2023/09/14 08:38:53;;;;;;;13.30;4.38;;;;;;;26.49;32.97;95215.91;4953338;28;20030;-95
2023/09/14 08:41:51;;;;;;;14.48;4.47;;;;;;;26.82;32.28;95208.97;4947792;28;20180;-95
2023/09/14 08:44:19;;;;;;;10.40;3.75;;;;;;;27.00;32.34;95201.75;4868260;29;20079;-89
2023/09/14 08:46:44;;;;;;;10.02;3.70;;;;;;;27.28;31.85;95198.44;4875253;29;20350;-95
2023/09/14 08:49:10;;;;;;;13.75;3.60;;;;;;;27.52;31.67;95197.47;4876983;29;20032;-91
2023/09/14 08:51:37;;;;;;;7.18;3.67;;;;;;;27.72;31.28;95196.81;4874807;29;20036;-92
2023/09/14 08:54:03;;;;;;;10.30;3.75;;;;;;;27.89;30.73;95204.19;4875999;29;20535;-90
2023/09/14 08:56:29;;;;;;;11.35;4.30;;;;;;;28.05;30.49;95194.59;4879270;29;20068;-90
2023/09/14 08:58:55;;;;;;;9.38;3.92;;;;;;;28.17;30.77;95181.75;4874511;29;20115;-91
2023/09/14 09:01:21;;;;;;;11.32;3.72;;;;;;;28.37;30.85;95180.28;4876492;29;20119;-93
2023/09/14 09:03:46;;;;;;;10.05;3.72;;;;;;;28.56;30.24;95175.19;4874314;29;20040;-89
2023/09/14 09:06:11;;;;;;;12.13;4.10;;;;;;;28.80;29.90;95171.25;4875506;29;20037;-88
2023/09/14 09:08:37;;;;;;;11.10;3.97;;;;;;;28.99;29.45;95158.97;4888550;29;20036;-92
2023/09/14 09:11:04;;;;;;;10.30;4.07;;;;;;;29.08;29.27;95158.50;4859273;29;20032;-83
2023/09/14 09:13:40;;;;;;;11.70;4.32;;;;;;;29.27;29.38;95156.16;4872952;29;20059;-89
2023/09/14 09:16:06;;;;;;;8.50;3.75;;;;;;;29.50;28.57;95153.47;4873810;29;20033;-88
2023/09/14 09:18:35;;;;;;;12.85;4.50;;;;;;;29.64;29.05;95142.78;4873870;29;20085;-82
2023/09/14 09:21:05;;;;;;;9.88;4.25;;;;;;;29.86;28.28;95153.47;4944441;29;20505;-83
2023/09/14 09:23:32;;;;;;;10.82;3.53;;;;;;;30.00;27.84;95150.50;4932509;29;20019;-87
2023/09/14 09:25:57;;;;;;;9.60;4.22;;;;;;;30.14;28.15;95149.06;4930211;29;20054;-83
2023/09/14 09:28:30;;;;;;;11.82;4.05;;;;;;;30.33;27.61;95145.88;4931574;29;20058;-88
2023/09/14 09:30:56;;;;;;;11.43;4.18;;;;;;;30.50;27.55;95151.75;4914981;29;20459;-87
2023/09/14 09:33:37;;;;;;;12.13;4.00;;;;;;;30.71;26.91;95150.88;4950066;29;20031;-91
2023/09/14 09:36:18;;;;;;;11.77;4.25;;;;;;;30.85;26.71;95141.63;4932710;29;20075;-87
2023/09/14 09:38:45;;;;;;;11.10;4.05;;;;;;;31.15;26.73;95145.75;4929516;29;20028;-91
2023/09/14 09:41:11;;;;;;;10.20;3.95;;;;;;;31.37;26.36;95147.84;4917417;29;20582;-89
2023/09/14 09:43:38;;;;;;;10.95;3.65;;;;;;;31.59;25.74;95140.56;4915615;29;20063;-86
2023/09/14 09:46:03;;;;;;;9.38;3.70;;;;;;;31.78;25.18;95137.28;4949552;29;20035;-95
2023/09/14 09:48:30;;;;;;;10.50;4.15;;;;;;;31.89;24.77;95141.84;4932920;29;20518;-95
2023/09/14 09:50:56;;;;;;;7.72;3.67;;;;;;;32.01;25.33;95142.16;4931370;29;20031;-86
2023/09/14 09:53:21;;;;;;;7.75;3.95;;;;;;;32.28;25.43;95137.44;4948984;29;20082;-87
2023/09/14 09:55:47;;;;;;;10.90;3.88;;;;;;;32.60;24.27;95133.09;4947735;29;20122;-88
2023/09/14 09:58:16;;;;;;;9.20;3.55;;;;;;;32.94;23.63;95136.09;4933347;29;20118;-84
2023/09/14 10:00:42;;;;;;;10.80;4.05;;;;;;;33.40;23.79;95141.38;4929885;29;20031;-81
2023/09/14 10:03:08;;;;;;;11.38;4.18;;;;;;;33.80;23.05;95131.81;4931604;29;20085;-89
2023/09/14 10:05:40;;;;;;;8.63;3.80;;;;;;;34.20;22.10;95137.22;4930847;29;20034;-86
2023/09/14 10:08:19;;;;;;;7.82;3.50;;;;;;;34.80;21.73;95125.53;4935450;29;20027;-84
2023/09/14 10:10:50;;;;;;;10.40;4.10;;;;;;;35.23;21.52;95135.31;4918911;29;20027;-88
2023/09/14 10:13:23;;;;;;;11.00;4.03;;;;;;;35.65;20.43;95123.50;4934487;29;20034;-85
2023/09/14 10:15:51;;;;;;;9.98;3.92;;;;;;;36.12;20.08;95118.34;4935043;29;20829;-88
2023/09/14 10:18:17;;;;;;;9.80;3.65;;;;;;;36.84;18.91;95120.59;4921128;29;20035;-87
2023/09/14 10:20:43;;;;;;;7.55;4.07;;;;;;;37.39;18.43;95116.56;4937850;29;20038;-87
2023/09/14 10:23:08;;;;;;;8.52;3.72;;;;;;;37.98;17.82;95108.25;4936116;29;20036;-91
2023/09/14 10:25:34;;;;;;;8.60;3.72;;;;;;;38.28;17.03;95100.13;4919422;29;20024;-87
2023/09/14 10:28:00;;;;;;;7.05;3.20;;;;;;;38.38;17.18;95103.66;4939018;29;20086;-91
2023/09/14 10:30:26;;;;;;;9.95;3.15;;;;;;;38.66;17.00;95102.56;4925041;29;20031;-91
2023/09/14 10:32:53;;;;;;;5.32;3.92;;;;;;;39.09;16.57;95101.59;4939984;29;20500;-90
2023/09/14 10:35:19;;;;;;;10.60;3.42;;;;;;;39.07;16.43;95104.34;4935059;29;20023;-91
2023/09/14 10:37:45;;;;;;;8.48;3.90;;;;;;;38.94;16.56;95099.97;4936915;29;20099;-91
2023/09/14 10:40:12;;;;;;;10.65;4.32;;;;;;;38.99;15.93;95101.72;4934753;29;20095;-92
2023/09/14 10:42:39;;;;;;;7.82;3.90;;;;;;;38.62;15.84;95101.56;4920219;29;20130;-91
2023/09/14 10:45:05;;;;;;;9.40;3.95;;;;;;;38.19;16.35;95095.97;4934888;29;20086;-92
2023/09/14 10:47:36;;;;;;;8.10;4.10;;;;;;;37.72;15.99;95090.03;4918446;29;20070;-91
2023/09/14 10:50:03;;;;;;;13.45;4.78;;;;;;;37.20;16.51;95077.28;4920851;29;20118;-94
2023/09/14 10:52:29;;;;;;;9.88;4.03;;;;;;;36.63;17.20;95070.47;4934197;29;20043;-91
2023/09/14 10:54:57;;;;;;;11.60;3.97;;;;;;;36.45;17.72;95074.94;4951538;29;20023;-91
2023/09/14 10:57:29;;;;;;;7.63;3.90;;;;;;;36.54;17.80;95071.28;4933267;29;20044;-83
2023/09/14 10:59:58;;;;;;;11.70;3.65;;;;;;;37.03;18.20;95077.53;4920030;29;20496;-88
2023/09/14 11:02:48;;;;;;;8.02;3.15;;;;;;;37.32;17.59;95071.59;4919210;29;20038;-87
2023/09/14 11:05:18;;;;;;;6.38;3.67;;;;;;;37.62;17.29;95064.31;4949941;29;20031;-86
2023/09/14 11:07:49;;;;;;;8.05;3.35;;;;;;;37.25;17.88;95066.84;4935094;29;20031;-90
2023/09/14 11:10:19;;;;;;;5.15;3.00;;;;;;;37.37;18.59;95067.69;4917502;29;20023;-89
2023/09/14 11:12:44;;;;;;;10.85;3.45;;;;;;;37.14;18.52;95068.25;4952160;29;20505;-86
2023/09/14 11:15:12;;;;;;;7.13;3.25;;;;;;;36.83;17.68;95064.66;4918442;29;20027;-89
2023/09/14 11:17:45;;;;;;;5.00;3.20;;;;;;;36.49;17.63;95060.91;4950382;28;20056;-88
2023/09/14 11:20:19;;;;;;;8.32;3.70;;;;;;;36.30;18.01;95061.72;4934188;29;20043;-89
2023/09/14 11:22:48;;;;;;;9.60;3.88;;;;;;;35.93;17.53;95061.19;4949886;29;20043;-88
2023/09/14 11:25:30;;;;;;;6.57;3.45;;;;;;;35.62;18.96;95061.81;4934754;29;20027;-90
2023/09/14 11:27:57;;;;;;;6.60;3.47;;;;;;;35.45;18.74;95047.69;4934990;29;20049;-90